Erbacon, West Virginia
Current Conditions -  °F | °C
As of 6:15 PM on Friday 19 Dec 2014 (Local Time) from KW22 Reporting Station
Overcast Overcast  
Wind Chill: 27°   Ceiling: 1500
Heat Index: 27°   Visibility: 10mi
Dew Point: 21°   Wind: 0mph
Humidity: 80%   Direction: NA
Pressure: 30.23"   Gusts: NA
Location:  38.52°N, 80.59°W
Report Text: KW22 192315Z AUTO 00000KT 10SM OVC015 M03/M06 A3023 RMK AO2
Loading
Personal Weather Stations






























Interactive Weather Map New forecast layout! Learn more

10-Day Weather Forecast

Advertisements
Track Severe Weather on mobile